Time;durP1;ratioP1;P1;durP2;ratioP2;P2;SDS_P1;SDS_P2;PMS_P1;PMS_P2;Temp;Humidity;BMP_temperature;BMP_pressure;BME280_temperature;BME280_humidity;BME280_pressure;Samples;Min_cycle;Max_cycle;Signal;HPM_P1;HPM_P2
2022/07/28 00:00:36;;;;;;;3.17;1.73;;;;;;;;;;5096875;28;20957;-52
2022/07/28 00:03:12;;;;;;;4.20;2.40;;;;;;;;;;5065944;28;23629;-52
2022/07/28 00:05:41;;;;;;;3.97;2.47;;;;;;;;;;5076947;28;20457;-52
2022/07/28 00:08:37;;;;;;;3.03;2.30;;;;;;;;;;5093588;28;20550;-51
2022/07/28 00:11:12;;;;;;;2.60;1.97;;;;;;;;;;5073548;28;20448;-52
2022/07/28 00:13:38;;;;;;;3.90;2.03;;;;;;;;;;5043672;28;20450;-51
2022/07/28 00:16:06;;;;;;;4.50;2.23;;;;;;;;;;5095899;28;20737;-49
2022/07/28 00:18:32;;;;;;;5.67;2.20;;;;;;;;;;5070429;28;20237;-51
2022/07/28 00:20:58;;;;;;;3.97;1.90;;;;;;;;;;5087997;28;20439;-52
2022/07/28 00:23:24;;;;;;;6.60;2.80;;;;;;;;;;5080138;28;21543;-51
2022/07/28 00:25:50;;;;;;;2.67;2.23;;;;;;;;;;5094961;28;20439;-52
2022/07/28 00:28:40;;;;;;;3.67;1.70;;;;;;;;;;5088246;28;20840;-51
2022/07/28 00:31:08;;;;;;;2.63;2.13;;;;;;;;;;5086195;28;20443;-49
2022/07/28 00:33:33;;;;;;;4.73;2.10;;;;;;;;;;5074727;28;20428;-51
2022/07/28 00:36:00;;;;;;;2.83;2.37;;;;;;;;;;5072710;28;20457;-51
2022/07/28 00:38:26;;;;;;;4.50;2.10;;;;;;;;;;5074699;28;20243;-51
2022/07/28 00:41:10;;;;;;;2.90;1.60;;;;;;;;;;5069462;28;20535;-51
2022/07/28 00:43:42;;;;;;;2.37;2.00;;;;;;;;;;5094857;28;20522;-52
2022/07/28 00:46:09;;;;;;;3.50;1.60;;;;;;;;;;5073036;28;20442;-51
2022/07/28 00:48:38;;;;;;;1.80;1.60;;;;;;;;;;5099763;28;20439;-52
2022/07/28 00:51:04;;;;;;;3.63;1.90;;;;;;;;;;5052701;28;20459;-51
2022/07/28 00:53:30;;;;;;;3.23;2.00;;;;;;;;;;5081063;28;20480;-51
2022/07/28 00:55:57;;;;;;;3.37;2.10;;;;;;;;;;5068468;28;20440;-52
2022/07/28 00:58:23;;;;;;;3.97;2.10;;;;;;;;;;5079399;28;20206;-52
2022/07/28 01:00:49;;;;;;;2.80;2.17;;;;;;;;;;5042390;28;24021;-52
2022/07/28 01:03:15;;;;;;;2.53;1.90;;;;;;;;;;5080799;28;20434;-51
2022/07/28 01:06:00;;;;;;;2.40;2.07;;;;;;;;;;5055420;28;20910;-52
2022/07/28 01:08:39;;;;;;;4.80;1.70;;;;;;;;;;5064424;28;20167;-52
2022/07/28 01:11:08;;;;;;;2.03;1.83;;;;;;;;;;5043173;28;20462;-51
2022/07/28 01:13:40;;;;;;;2.43;2.23;;;;;;;;;;5065446;28;20967;-51
2022/07/28 01:16:06;;;;;;;8.03;2.00;;;;;;;;;;5054094;28;20430;-52
2022/07/28 01:18:43;;;;;;;1.90;1.70;;;;;;;;;;5077485;28;20532;-51
2022/07/28 01:21:13;;;;;;;7.77;1.87;;;;;;;;;;5037114;28;20178;-51
2022/07/28 01:24:06;;;;;;;2.57;1.80;;;;;;;;;;5048076;28;20566;-51
2022/07/28 01:26:44;;;;;;;2.80;1.70;;;;;;;;;;5055478;28;20445;-51
2022/07/28 01:29:10;;;;;;;2.53;2.03;;;;;;;;;;5056579;28;20437;-52
2022/07/28 01:31:37;;;;;;;1.90;1.50;;;;;;;;;;5064163;28;20436;-52
2022/07/28 01:34:08;;;;;;;2.60;1.97;;;;;;;;;;5061266;28;20556;-52
2022/07/28 01:36:45;;;;;;;2.40;2.07;;;;;;;;;;5048549;28;20452;-50
2022/07/28 01:39:12;;;;;;;3.20;1.83;;;;;;;;;;5057053;28;20814;-50
2022/07/28 01:41:38;;;;;;;2.07;1.60;;;;;;;;;;5074276;28;20436;-50
2022/07/28 01:44:07;;;;;;;2.83;1.90;;;;;;;;;;5057347;28;20508;-49
2022/07/28 01:46:40;;;;;;;3.87;2.03;;;;;;;;;;5040229;28;20452;-50
2022/07/28 01:49:07;;;;;;;4.30;2.57;;;;;;;;;;5080514;28;20455;-51
2022/07/28 01:51:33;;;;;;;5.03;2.03;;;;;;;;;;5060352;28;20444;-53
2022/07/28 01:53:59;;;;;;;2.93;1.73;;;;;;;;;;5064505;28;20441;-50
2022/07/28 01:56:26;;;;;;;2.83;1.87;;;;;;;;;;5056980;28;20440;-51
2022/07/28 01:58:54;;;;;;;3.23;2.10;;;;;;;;;;5078401;28;20481;-51
2022/07/28 02:01:25;;;;;;;2.60;2.00;;;;;;;;;;5061150;28;20444;-53
2022/07/28 02:03:52;;;;;;;3.20;2.10;;;;;;;;;;5061270;28;20466;-53
2022/07/28 02:06:18;;;;;;;2.27;1.83;;;;;;;;;;5055752;28;20435;-53
2022/07/28 02:08:44;;;;;;;4.90;1.97;;;;;;;;;;5079535;28;20444;-51
2022/07/28 02:13:55;;;;;;;2.97;2.40;;;;;;;;;;5077864;28;20490;-52
2022/07/28 02:16:22;;;;;;;4.07;2.30;;;;;;;;;;5051818;28;20543;-53
2022/07/28 02:18:48;;;;;;;2.70;2.47;;;;;;;;;;5056808;28;20480;-52
2022/07/28 02:21:14;;;;;;;6.00;2.50;;;;;;;;;;5021587;28;20491;-51
2022/07/28 02:23:40;;;;;;;2.53;1.80;;;;;;;;;;5064593;28;21000;-52
2022/07/28 02:26:30;;;;;;;5.43;2.00;;;;;;;;;;5052445;28;20426;-52
2022/07/28 02:29:04;;;;;;;3.80;1.87;;;;;;;;;;5058068;28;20530;-52
2022/07/28 02:31:44;;;;;;;3.63;2.17;;;;;;;;;;5048571;28;20516;-51
2022/07/28 02:34:26;;;;;;;3.70;2.00;;;;;;;;;;5064219;28;20437;-52
2022/07/28 02:36:59;;;;;;;1.93;1.50;;;;;;;;;;5057515;28;21221;-51
2022/07/28 02:39:35;;;;;;;1.90;1.60;;;;;;;;;;5083462;28;20558;-51
2022/07/28 02:42:05;;;;;;;3.00;1.90;;;;;;;;;;5048213;28;20497;-53
2022/07/28 02:44:35;;;;;;;2.97;2.40;;;;;;;;;;5083305;28;20444;-51
2022/07/28 02:47:27;;;;;;;2.20;1.97;;;;;;;;;;5054200;28;22704;-51
2022/07/28 02:49:58;;;;;;;4.10;2.40;;;;;;;;;;5059982;28;20436;-51
2022/07/28 02:52:47;;;;;;;2.97;1.60;;;;;;;;;;5072599;28;20949;-51
2022/07/28 02:55:14;;;;;;;3.13;2.20;;;;;;;;;;5061988;28;20439;-51
2022/07/28 02:57:46;;;;;;;4.87;1.97;;;;;;;;;;5055238;28;20692;-51
2022/07/28 03:00:13;;;;;;;3.50;2.40;;;;;;;;;;5079780;28;20483;-52
2022/07/28 03:02:40;;;;;;;3.57;2.37;;;;;;;;;;5070169;28;20654;-51
2022/07/28 03:05:06;;;;;;;4.53;2.37;;;;;;;;;;5060878;28;20515;-51
2022/07/28 03:07:37;;;;;;;1.80;1.70;;;;;;;;;;5077266;28;20479;-51
2022/07/28 03:10:03;;;;;;;4.70;2.37;;;;;;;;;;5076300;28;20428;-51
2022/07/28 03:12:32;;;;;;;3.10;2.20;;;;;;;;;;5080207;28;20447;-51
2022/07/28 03:15:02;;;;;;;4.10;2.43;;;;;;;;;;5037985;28;20512;-51
2022/07/28 03:17:28;;;;;;;4.13;2.13;;;;;;;;;;5051945;28;20869;-51
2022/07/28 03:19:54;;;;;;;4.33;2.50;;;;;;;;;;5057016;28;20467;-51
2022/07/28 03:22:20;;;;;;;5.47;2.60;;;;;;;;;;5056698;28;20853;-52
2022/07/28 03:24:47;;;;;;;2.43;2.00;;;;;;;;;;5079768;28;20804;-54
2022/07/28 03:27:34;;;;;;;3.20;2.00;;;;;;;;;;5052385;28;21072;-52
2022/07/28 03:30:05;;;;;;;3.30;2.50;;;;;;;;;;5074874;28;20444;-52
2022/07/28 03:32:31;;;;;;;4.50;2.70;;;;;;;;;;5073635;28;20471;-51
2022/07/28 03:34:57;;;;;;;2.10;1.90;;;;;;;;;;5076234;28;20444;-52
2022/07/28 03:37:30;;;;;;;8.00;2.97;;;;;;;;;;5062120;28;20452;-51
2022/07/28 03:39:56;;;;;;;2.53;1.80;;;;;;;;;;5080592;28;20572;-51
2022/07/28 03:42:22;;;;;;;4.20;2.73;;;;;;;;;;5072855;28;20432;-51
2022/07/28 03:44:49;;;;;;;3.00;2.20;;;;;;;;;;5057102;28;20436;-51
2022/07/28 03:47:15;;;;;;;2.57;1.80;;;;;;;;;;5039864;28;20445;-52
2022/07/28 03:49:45;;;;;;;3.20;2.00;;;;;;;;;;5056833;28;20433;-49
2022/07/28 03:52:11;;;;;;;4.90;2.33;;;;;;;;;;5075823;28;20439;-54
2022/07/28 03:54:37;;;;;;;5.20;2.20;;;;;;;;;;5076906;28;20520;-50
2022/07/28 03:57:03;;;;;;;4.53;2.10;;;;;;;;;;5060834;28;20444;-52
2022/07/28 03:59:29;;;;;;;9.00;2.40;;;;;;;;;;5063964;28;21238;-52
2022/07/28 04:01:58;;;;;;;6.70;2.20;;;;;;;;;;5073727;28;20426;-50
2022/07/28 04:04:23;;;;;;;3.13;2.43;;;;;;;;;;5074042;28;20432;-53
2022/07/28 04:06:50;;;;;;;4.03;2.93;;;;;;;;;;5067560;28;20432;-52
2022/07/28 04:09:16;;;;;;;5.90;2.50;;;;;;;;;;5058273;28;20499;-52
2022/07/28 04:11:44;;;;;;;3.90;2.40;;;;;;;;;;5055233;28;20425;-51
2022/07/28 04:14:10;;;;;;;5.03;2.43;;;;;;;;;;5051578;28;20413;-51
2022/07/28 04:16:40;;;;;;;4.73;2.40;;;;;;;;;;5069770;28;20432;-49
2022/07/28 04:19:08;;;;;;;2.70;2.10;;;;;;;;;;5046109;28;20514;-53
2022/07/28 04:21:34;;;;;;;3.10;2.47;;;;;;;;;;5074457;28;20467;-51
2022/07/28 04:24:00;;;;;;;4.37;2.90;;;;;;;;;;5051870;28;20435;-52
2022/07/28 04:26:26;;;;;;;3.00;2.00;;;;;;;;;;5077014;28;20896;-51
2022/07/28 04:28:53;;;;;;;1.93;1.70;;;;;;;;;;5073869;28;20572;-51
2022/07/28 04:31:19;;;;;;;3.73;2.53;;;;;;;;;;5076888;28;20436;-51
2022/07/28 04:33:46;;;;;;;4.00;2.33;;;;;;;;;;5051024;28;20549;-52
2022/07/28 04:36:12;;;;;;;3.47;2.13;;;;;;;;;;5080574;28;20174;-51
2022/07/28 04:38:38;;;;;;;2.70;2.00;;;;;;;;;;5059783;28;20554;-51
2022/07/28 04:41:04;;;;;;;2.93;2.47;;;;;;;;;;5085946;28;20437;-51
2022/07/28 04:43:30;;;;;;;3.33;2.20;;;;;;;;;;5075085;28;20475;-51
2022/07/28 04:45:56;;;;;;;6.20;2.47;;;;;;;;;;5082590;28;20805;-51
2022/07/28 04:48:22;;;;;;;3.57;1.97;;;;;;;;;;5062757;28;20467;-51
2022/07/28 04:51:11;;;;;;;5.93;2.47;;;;;;;;;;5066136;28;20456;-52
2022/07/28 04:53:43;;;;;;;5.97;2.40;;;;;;;;;;5070412;28;20459;-52
2022/07/28 04:56:09;;;;;;;2.77;2.30;;;;;;;;;;5079626;28;20440;-52
2022/07/28 04:58:36;;;;;;;2.20;1.90;;;;;;;;;;5049621;28;20909;-49
2022/07/28 05:01:02;;;;;;;3.60;2.20;;;;;;;;;;5081236;28;20454;-51
2022/07/28 05:03:28;;;;;;;2.10;1.90;;;;;;;;;;5050960;28;20456;-51
2022/07/28 05:05:54;;;;;;;2.87;1.90;;;;;;;;;;5074770;28;20440;-51
2022/07/28 05:08:20;;;;;;;2.57;1.87;;;;;;;;;;5076171;28;20440;-51
2022/07/28 05:10:46;;;;;;;6.10;2.93;;;;;;;;;;5073187;28;20489;-52
2022/07/28 05:13:12;;;;;;;3.23;2.57;;;;;;;;;;5051351;28;20219;-50
2022/07/28 05:15:54;;;;;;;5.40;2.77;;;;;;;;;;5069637;28;20226;-52
2022/07/28 05:18:22;;;;;;;2.70;2.20;;;;;;;;;;5068451;28;20456;-52
2022/07/28 05:20:47;;;;;;;3.40;1.60;;;;;;;;;;5060248;28;20482;-51
2022/07/28 05:23:22;;;;;;;3.40;2.50;;;;;;;;;;5067543;28;20769;-53
2022/07/28 05:26:21;;;;;;;3.47;1.90;;;;;;;;;;5062960;28;20454;-51
2022/07/28 05:29:06;;;;;;;2.17;1.97;;;;;;;;;;5056151;28;20440;-52
2022/07/28 05:31:34;;;;;;;3.50;1.70;;;;;;;;;;5055757;28;20554;-53
2022/07/28 05:34:04;;;;;;;5.30;2.30;;;;;;;;;;5062018;28;20501;-52
2022/07/28 05:36:34;;;;;;;3.63;1.87;;;;;;;;;;5050944;28;20429;-52
2022/07/28 05:39:00;;;;;;;4.10;2.33;;;;;;;;;;5063653;28;20480;-52
2022/07/28 05:41:26;;;;;;;2.53;1.83;;;;;;;;;;5075877;28;20535;-52
2022/07/28 05:43:57;;;;;;;2.37;2.00;;;;;;;;;;5078543;28;20449;-52
2022/07/28 05:46:51;;;;;;;2.90;1.87;;;;;;;;;;5080602;28;20497;-52
2022/07/28 05:49:26;;;;;;;5.37;2.80;;;;;;;;;;5069264;28;20647;-52
2022/07/28 05:51:51;;;;;;;3.10;2.03;;;;;;;;;;5070960;28;20428;-52
2022/07/28 05:54:17;;;;;;;3.07;2.10;;;;;;;;;;5073047;28;20505;-52
2022/07/28 05:56:52;;;;;;;4.90;2.07;;;;;;;;;;5054542;28;20205;-54
2022/07/28 05:59:19;;;;;;;3.33;1.80;;;;;;;;;;5068101;28;20511;-51
2022/07/28 06:01:45;;;;;;;3.40;2.33;;;;;;;;;;5079811;28;21341;-52
2022/07/28 06:04:11;;;;;;;3.20;2.30;;;;;;;;;;5079266;28;20951;-51
2022/07/28 06:09:41;;;;;;;3.00;1.87;;;;;;;;;;5045391;28;21606;-51
2022/07/28 06:12:08;;;;;;;6.60;2.70;;;;;;;;;;5079200;28;20547;-51
2022/07/28 06:14:38;;;;;;;6.60;2.37;;;;;;;;;;5057676;28;20437;-51
2022/07/28 06:17:04;;;;;;;4.40;2.50;;;;;;;;;;5061087;28;20455;-51
2022/07/28 06:19:30;;;;;;;2.87;2.10;;;;;;;;;;5057872;28;20548;-52
2022/07/28 06:21:57;;;;;;;3.40;2.80;;;;;;;;;;5063681;28;20436;-53
2022/07/28 06:24:33;;;;;;;4.03;2.10;;;;;;;;;;5059868;28;20457;-51
2022/07/28 06:27:01;;;;;;;7.90;3.10;;;;;;;;;;5080880;28;20516;-51
2022/07/28 06:29:45;;;;;;;2.70;2.03;;;;;;;;;;5048696;28;20448;-51
2022/07/28 06:32:11;;;;;;;3.90;2.83;;;;;;;;;;5043817;28;20440;-51
2022/07/28 06:34:37;;;;;;;4.03;2.50;;;;;;;;;;5073831;28;20432;-52
2022/07/28 06:37:04;;;;;;;3.47;3.17;;;;;;;;;;5053481;28;21004;-52
2022/07/28 06:39:33;;;;;;;6.73;2.93;;;;;;;;;;5078463;28;21036;-52
2022/07/28 06:41:59;;;;;;;4.07;3.33;;;;;;;;;;5052668;28;20441;-51
2022/07/28 06:44:25;;;;;;;4.03;3.60;;;;;;;;;;5082926;28;20439;-54
2022/07/28 06:46:52;;;;;;;5.50;3.27;;;;;;;;;;5030019;28;20198;-53
2022/07/28 06:49:18;;;;;;;5.53;3.83;;;;;;;;;;5075426;28;20510;-51
2022/07/28 06:51:44;;;;;;;9.13;3.70;;;;;;;;;;5057581;28;20665;-51
2022/07/28 06:54:11;;;;;;;4.90;4.00;;;;;;;;;;5061428;28;20862;-52
2022/07/28 06:56:38;;;;;;;5.33;4.83;;;;;;;;;;5039312;28;20447;-51
2022/07/28 06:59:04;;;;;;;4.40;4.00;;;;;;;;;;5050872;28;20472;-52
2022/07/28 07:02:00;;;;;;;4.47;4.07;;;;;;;;;;5035336;28;21060;-51
2022/07/28 07:04:26;;;;;;;4.87;4.10;;;;;;;;;;5061425;28;20950;-52
2022/07/28 07:07:04;;;;;;;4.60;3.70;;;;;;;;;;5026619;28;20953;-50
2022/07/28 07:09:30;;;;;;;7.30;3.83;;;;;;;;;;5046366;28;20958;-51
2022/07/28 07:11:56;;;;;;;5.60;4.23;;;;;;;;;;5074211;28;20432;-51
2022/07/28 07:14:22;;;;;;;5.43;4.73;;;;;;;;;;5069178;28;20438;-53
2022/07/28 07:16:48;;;;;;;6.50;4.53;;;;;;;;;;5044819;28;20438;-50
2022/07/28 07:19:14;;;;;;;6.77;4.50;;;;;;;;;;5071706;28;20478;-51
2022/07/28 07:21:52;;;;;;;5.80;4.70;;;;;;;;;;5056077;28;20433;-51
2022/07/28 07:24:26;;;;;;;5.63;5.13;;;;;;;;;;5069074;28;20773;-53
2022/07/28 07:26:54;;;;;;;6.93;4.80;;;;;;;;;;5053103;28;20449;-51
2022/07/28 07:29:41;;;;;;;6.80;5.60;;;;;;;;;;5066373;28;20546;-51
2022/07/28 07:32:08;;;;;;;6.00;5.50;;;;;;;;;;5070609;28;20516;-52
2022/07/28 07:35:00;;;;;;;7.73;5.30;;;;;;;;;;5046361;28;20522;-55
2022/07/28 07:37:26;;;;;;;5.97;5.47;;;;;;;;;;5061708;28;20498;-52
2022/07/28 07:39:52;;;;;;;9.73;6.90;;;;;;;;;;5053975;28;20647;-52
2022/07/28 07:42:19;;;;;;;7.23;6.33;;;;;;;;;;5060772;28;20987;-52
2022/07/28 07:44:45;;;;;;;8.17;6.47;;;;;;;;;;5071830;28;20780;-51
2022/07/28 07:47:11;;;;;;;6.60;6.00;;;;;;;;;;5063012;28;20803;-54
2022/07/28 07:49:38;;;;;;;7.53;6.33;;;;;;;;;;5047133;28;20457;-51
2022/07/28 07:52:04;;;;;;;7.57;6.57;;;;;;;;;;5081522;28;20460;-52
2022/07/28 07:54:30;;;;;;;8.40;6.47;;;;;;;;;;5049211;28;20437;-52
2022/07/28 07:56:56;;;;;;;10.53;6.07;;;;;;;;;;5075431;28;20436;-53
2022/07/28 07:59:22;;;;;;;7.57;5.70;;;;;;;;;;5051976;28;20537;-52
2022/07/28 08:01:53;;;;;;;9.57;6.53;;;;;;;;;;5075876;28;20439;-51
2022/07/28 08:04:20;;;;;;;7.40;6.73;;;;;;;;;;5045166;28;21063;-52
2022/07/28 08:06:48;;;;;;;7.00;6.20;;;;;;;;;;5064579;28;20957;-55
2022/07/28 08:09:25;;;;;;;6.43;5.83;;;;;;;;;;5061641;28;20443;-52
2022/07/28 08:11:53;;;;;;;8.17;6.50;;;;;;;;;;5058816;28;20436;-51
2022/07/28 08:14:59;;;;;;;7.20;6.50;;;;;;;;;;5058029;28;20448;-51
2022/07/28 08:17:28;;;;;;;6.60;6.00;;;;;;;;;;5074959;28;20440;-51
2022/07/28 08:19:54;;;;;;;6.77;6.17;;;;;;;;;;5019814;28;20480;-52
2022/07/28 08:22:21;;;;;;;8.60;6.70;;;;;;;;;;5078057;28;20428;-52
2022/07/28 08:24:48;;;;;;;7.33;6.63;;;;;;;;;;5074500;28;20535;-51
2022/07/28 08:27:16;;;;;;;8.33;6.43;;;;;;;;;;5058150;28;20457;-53
2022/07/28 08:29:42;;;;;;;8.40;6.70;;;;;;;;;;5035188;28;20456;-51
2022/07/28 08:32:08;;;;;;;7.97;7.27;;;;;;;;;;5082443;28;20465;-52
2022/07/28 08:34:34;;;;;;;7.90;6.50;;;;;;;;;;5076007;28;20186;-49
2022/07/28 08:37:00;;;;;;;8.03;7.10;;;;;;;;;;5076127;28;20435;-51
2022/07/28 08:39:26;;;;;;;7.43;6.77;;;;;;;;;;5047710;28;20476;-51
2022/07/28 08:41:59;;;;;;;8.80;6.90;;;;;;;;;;5074750;28;20440;-52
2022/07/28 08:44:27;;;;;;;7.23;6.60;;;;;;;;;;5038217;28;20447;-52
2022/07/28 08:47:12;;;;;;;19.03;6.70;;;;;;;;;;5062517;28;20437;-52
2022/07/28 08:49:41;;;;;;;7.10;6.23;;;;;;;;;;5017106;28;20955;-52
2022/07/28 08:52:11;;;;;;;7.63;6.80;;;;;;;;;;5069478;28;20440;-52
2022/07/28 08:54:37;;;;;;;7.97;7.27;;;;;;;;;;5050563;28;20505;-51
2022/07/28 08:57:03;;;;;;;7.60;6.80;;;;;;;;;;5038231;28;21202;-52
2022/07/28 08:59:29;;;;;;;8.07;7.17;;;;;;;;;;5079808;28;20480;-52
2022/07/28 09:01:56;;;;;;;8.87;6.70;;;;;;;;;;5057896;28;20444;-51
2022/07/28 09:04:22;;;;;;;9.10;6.83;;;;;;;;;;5046057;28;20511;-50
2022/07/28 09:06:49;;;;;;;7.73;6.43;;;;;;;;;;5056831;28;20449;-52
2022/07/28 09:09:15;;;;;;;9.03;6.40;;;;;;;;;;5049626;28;20493;-51
2022/07/28 09:11:41;;;;;;;9.17;8.30;;;;;;;;;;5054525;28;20543;-53
2022/07/28 09:14:31;;;;;;;7.60;6.77;;;;;;;;;;5050702;28;20976;-52
2022/07/28 09:17:07;;;;;;;7.33;6.73;;;;;;;;;;5057470;28;20461;-52
2022/07/28 09:19:33;;;;;;;8.80;7.33;;;;;;;;;;5051600;28;20494;-51
2022/07/28 09:21:59;;;;;;;8.27;7.37;;;;;;;;;;5077607;28;20177;-51
2022/07/28 09:24:43;;;;;;;9.20;8.30;;;;;;;;;;5062893;28;20748;-52
2022/07/28 09:27:11;;;;;;;7.13;6.53;;;;;;;;;;5070970;28;20452;-51
2022/07/28 09:29:38;;;;;;;7.67;6.97;;;;;;;;;;5059589;28;20922;-51
2022/07/28 09:32:04;;;;;;;7.27;6.53;;;;;;;;;;5061888;28;20441;-52
2022/07/28 09:35:02;;;;;;;8.90;6.73;;;;;;;;;;5076506;28;20479;-51
2022/07/28 09:37:40;;;;;;;7.63;6.70;;;;;;;;;;5039699;28;20443;-51
2022/07/28 09:40:25;;;;;;;7.27;6.57;;;;;;;;;;5068418;28;21002;-51
2022/07/28 09:42:57;;;;;;;7.63;6.93;;;;;;;;;;5038937;28;20453;-54
2022/07/28 09:45:48;;;;;;;8.40;6.60;;;;;;;;;;5053488;28;20553;-53
2022/07/28 09:48:17;;;;;;;7.90;7.07;;;;;;;;;;5073156;28;20524;-52
2022/07/28 09:50:43;;;;;;;7.00;6.30;;;;;;;;;;5063091;28;20480;-51
2022/07/28 09:53:22;;;;;;;9.93;7.33;;;;;;;;;;5069873;28;20502;-50
2022/07/28 09:55:58;;;;;;;7.57;6.80;;;;;;;;;;5023666;28;20190;-52
2022/07/28 09:58:24;;;;;;;9.30;6.70;;;;;;;;;;5072904;28;20435;-52
2022/07/28 10:00:51;;;;;;;9.93;7.80;;;;;;;;;;5031834;28;20448;-51
2022/07/28 10:03:24;;;;;;;6.10;5.50;;;;;;;;;;5044303;28;20512;-52
2022/07/28 10:05:50;;;;;;;7.33;6.63;;;;;;;;;;5051021;28;20483;-51
2022/07/28 10:08:16;;;;;;;7.30;6.60;;;;;;;;;;5072374;28;20445;-51
2022/07/28 10:10:42;;;;;;;7.80;7.00;;;;;;;;;;5048417;28;24570;-53
2022/07/28 10:13:08;;;;;;;7.33;6.47;;;;;;;;;;5070602;28;20453;-51
2022/07/28 10:18:19;;;;;;;7.23;6.10;;;;;;;;;;5067045;28;20487;-50
2022/07/28 10:21:14;;;;;;;7.30;6.70;;;;;;;;;;5072189;28;20468;-52
2022/07/28 10:23:45;;;;;;;6.73;6.03;;;;;;;;;;5074466;28;20418;-51
2022/07/28 10:26:28;;;;;;;9.07;6.47;;;;;;;;;;5064849;28;20468;-52
2022/07/28 10:28:54;;;;;;;7.00;6.30;;;;;;;;;;5074320;28;20428;-52
2022/07/28 10:31:40;;;;;;;6.67;6.07;;;;;;;;;;5050810;28;20688;-53
2022/07/28 10:34:08;;;;;;;7.70;6.90;;;;;;;;;;5078250;28;20424;-51
2022/07/28 10:36:34;;;;;;;7.60;6.90;;;;;;;;;;5030148;28;21027;-52
2022/07/28 10:39:02;;;;;;;12.07;10.80;;;;;;;;;;5047572;28;20500;-51
2022/07/28 10:41:58;;;;;;;10.50;9.37;;;;;;;;;;5080603;28;20441;-53
2022/07/28 10:44:24;;;;;;;6.90;6.30;;;;;;;;;;5068098;28;20475;-51
2022/07/28 10:46:50;;;;;;;6.03;5.53;;;;;;;;;;5051465;28;20532;-51
2022/07/28 10:49:16;;;;;;;6.77;5.70;;;;;;;;;;5069709;28;20456;-50
2022/07/28 10:51:43;;;;;;;7.00;6.30;;;;;;;;;;5020962;28;21573;-52
2022/07/28 10:54:13;;;;;;;7.60;6.90;;;;;;;;;;5056040;28;20441;-50
2022/07/28 10:56:47;;;;;;;6.50;5.93;;;;;;;;;;5074665;28;20527;-52
2022/07/28 10:59:13;;;;;;;6.87;5.63;;;;;;;;;;5036326;28;20533;-51
2022/07/28 11:01:40;;;;;;;6.60;6.00;;;;;;;;;;5076736;28;20425;-50
2022/07/28 11:04:06;;;;;;;9.73;7.03;;;;;;;;;;5049130;28;20440;-51
2022/07/28 11:06:34;;;;;;;6.80;5.47;;;;;;;;;;5045063;28;20440;-52
2022/07/28 11:09:20;;;;;;;6.83;6.10;;;;;;;;;;5027836;28;21157;-51
2022/07/28 11:11:52;;;;;;;7.77;6.97;;;;;;;;;;5046474;28;21099;-51
2022/07/28 11:14:24;;;;;;;6.67;5.93;;;;;;;;;;5021550;28;20479;-51
2022/07/28 11:17:00;;;;;;;7.80;6.97;;;;;;;;;;5047731;28;20559;-51
2022/07/28 11:19:51;;;;;;;7.73;6.03;;;;;;;;;;5016607;28;20508;-50
2022/07/28 11:22:18;;;;;;;6.83;5.77;;;;;;;;;;5044102;28;20420;-52
2022/07/28 11:25:03;;;;;;;7.50;6.80;;;;;;;;;;5026609;28;20445;-52
2022/07/28 11:30:07;;;;;;;6.63;6.00;;;;;;;;;;5069629;28;20444;-52
2022/07/28 11:32:54;;;;;;;6.07;5.57;;;;;;;;;;5047025;28;20452;-51
2022/07/28 11:35:29;;;;;;;6.77;6.17;;;;;;;;;;5070140;28;23632;-52
2022/07/28 11:37:59;;;;;;;8.33;5.80;;;;;;;;;;5041626;28;20479;-53
2022/07/28 11:40:31;;;;;;;6.20;5.70;;;;;;;;;;5055057;28;20476;-52
2022/07/28 11:43:16;;;;;;;7.27;5.67;;;;;;;;;;5041679;28;20424;-52
2022/07/28 11:45:42;;;;;;;6.13;5.53;;;;;;;;;;5067769;28;20481;-52
2022/07/28 11:48:20;;;;;;;6.17;5.67;;;;;;;;;;5044483;28;20878;-53
2022/07/28 11:53:57;;;;;;;6.53;5.83;;;;;;;;;;5060381;28;20762;-52
2022/07/28 11:56:42;;;;;;;5.87;5.37;;;;;;;;;;5050877;28;20868;-53
2022/07/28 11:59:10;;;;;;;5.70;5.20;;;;;;;;;;5068749;28;20661;-52
2022/07/28 12:01:36;;;;;;;6.37;5.17;;;;;;;;;;5067310;28;20432;-52
2022/07/28 12:04:08;;;;;;;6.53;5.37;;;;;;;;;;5069838;28;20471;-51
2022/07/28 12:06:35;;;;;;;5.90;5.30;;;;;;;;;;5041395;28;20195;-52
2022/07/28 12:09:05;;;;;;;5.00;4.60;;;;;;;;;;5066823;28;20440;-51
2022/07/28 12:11:35;;;;;;;7.47;5.47;;;;;;;;;;5032170;28;21080;-52
2022/07/28 12:14:04;;;;;;;8.03;5.57;;;;;;;;;;5067202;28;20535;-52
2022/07/28 12:16:31;;;;;;;7.13;6.63;;;;;;;;;;5047046;28;20449;-51
2022/07/28 12:18:59;;;;;;;5.67;5.17;;;;;;;;;;5063644;28;20476;-52
2022/07/28 12:21:35;;;;;;;6.33;5.80;;;;;;;;;;5051462;28;21249;-52
2022/07/28 12:24:01;;;;;;;6.60;4.60;;;;;;;;;;5069254;28;20945;-51
2022/07/28 12:26:31;;;;;;;6.10;5.07;;;;;;;;;;5067037;28;21764;-51
2022/07/28 12:28:57;;;;;;;7.50;5.57;;;;;;;;;;5073215;28;20439;-52
2022/07/28 12:32:01;;;;;;;5.73;5.27;;;;;;;;;;5033538;28;22495;-55
2022/07/28 12:34:27;;;;;;;12.20;5.17;;;;;;;;;;4956974;28;20474;-51
2022/07/28 12:36:58;;;;;;;5.60;5.10;;;;;;;;;;5024375;28;20746;-54
2022/07/28 12:39:24;;;;;;;5.87;5.37;;;;;;;;;;5074626;28;20901;-52
2022/07/28 12:42:12;;;;;;;6.53;4.50;;;;;;;;;;5051214;28;20436;-51
2022/07/28 12:44:39;;;;;;;6.60;4.90;;;;;;;;;;5063268;28;20433;-53
2022/07/28 12:47:06;;;;;;;5.10;4.60;;;;;;;;;;5072962;28;21173;-51
2022/07/28 12:49:32;;;;;;;5.97;4.00;;;;;;;;;;5076218;28;20504;-52
2022/07/28 12:51:59;;;;;;;4.60;4.20;;;;;;;;;;5036467;28;20440;-51
2022/07/28 12:54:35;;;;;;;5.13;4.63;;;;;;;;;;5078133;28;20178;-51
2022/07/28 12:57:01;;;;;;;5.33;4.33;;;;;;;;;;5071513;28;20433;-51
2022/07/28 12:59:31;;;;;;;5.37;4.37;;;;;;;;;;5081404;28;20575;-52
2022/07/28 13:01:57;;;;;;;6.30;4.53;;;;;;;;;;5059715;28;20569;-53
2022/07/28 13:04:42;;;;;;;5.43;4.93;;;;;;;;;;5060180;28;20852;-52
2022/07/28 13:07:38;;;;;;;4.97;4.57;;;;;;;;;;5062838;28;21262;-50
2022/07/28 13:10:07;;;;;;;5.30;4.53;;;;;;;;;;5072245;28;20467;-50
2022/07/28 13:12:33;;;;;;;4.70;4.30;;;;;;;;;;5055527;28;20549;-51
2022/07/28 13:14:59;;;;;;;4.97;4.57;;;;;;;;;;5074814;28;20430;-51
2022/07/28 13:17:32;;;;;;;5.23;4.33;;;;;;;;;;5053823;28;20493;-51
2022/07/28 13:20:04;;;;;;;4.97;4.47;;;;;;;;;;5073477;28;20503;-51
2022/07/28 13:22:32;;;;;;;4.90;4.50;;;;;;;;;;5049026;28;20463;-51
2022/07/28 13:24:58;;;;;;;5.90;4.60;;;;;;;;;;5073762;28;20417;-52
2022/07/28 13:27:24;;;;;;;4.83;4.40;;;;;;;;;;5065388;28;20482;-50
2022/07/28 13:29:50;;;;;;;5.70;5.10;;;;;;;;;;5064027;28;20609;-51
2022/07/28 13:32:16;;;;;;;4.60;4.20;;;;;;;;;;5064315;28;20425;-51
2022/07/28 13:34:43;;;;;;;6.20;5.20;;;;;;;;;;5066258;28;20582;-51
2022/07/28 13:37:30;;;;;;;4.83;4.40;;;;;;;;;;5053784;28;21430;-51
2022/07/28 13:39:56;;;;;;;4.93;4.53;;;;;;;;;;5070105;28;20471;-51
2022/07/28 13:42:41;;;;;;;5.20;4.80;;;;;;;;;;5052467;28;20881;-52
2022/07/28 13:45:15;;;;;;;5.10;4.57;;;;;;;;;;5061051;28;20444;-53
2022/07/28 13:47:41;;;;;;;4.83;4.43;;;;;;;;;;5048254;28;20420;-52
2022/07/28 13:50:07;;;;;;;6.63;5.90;;;;;;;;;;5074367;28;20456;-52
2022/07/28 13:52:33;;;;;;;5.07;4.33;;;;;;;;;;5053540;28;20186;-52
2022/07/28 13:55:01;;;;;;;5.03;4.63;;;;;;;;;;5041510;28;20445;-52
2022/07/28 13:57:27;;;;;;;5.03;4.50;;;;;;;;;;5070489;28;20436;-52
2022/07/28 13:59:53;;;;;;;6.80;5.07;;;;;;;;;;5051805;28;20556;-51
2022/07/28 14:02:19;;;;;;;7.30;5.37;;;;;;;;;;5074116;28;20443;-51
2022/07/28 14:04:45;;;;;;;5.50;5.00;;;;;;;;;;5066287;28;20232;-52
2022/07/28 14:07:11;;;;;;;5.50;4.77;;;;;;;;;;5076335;28;20205;-52
2022/07/28 14:09:37;;;;;;;4.93;4.53;;;;;;;;;;5045056;28;20440;-50
2022/07/28 14:12:03;;;;;;;5.10;4.60;;;;;;;;;;5072626;28;20439;-52
2022/07/28 14:14:29;;;;;;;4.50;4.10;;;;;;;;;;5072434;28;20190;-52
2022/07/28 14:16:55;;;;;;;6.30;4.53;;;;;;;;;;5074822;28;20416;-52
2022/07/28 14:19:22;;;;;;;10.43;4.53;;;;;;;;;;5049075;28;20483;-51
2022/07/28 14:21:48;;;;;;;5.40;4.60;;;;;;;;;;5070416;28;20207;-51
2022/07/28 14:24:37;;;;;;;6.33;5.00;;;;;;;;;;5049201;28;20467;-52
2022/07/28 14:27:33;;;;;;;9.53;5.70;;;;;;;;;;5065020;28;20284;-53
2022/07/28 14:30:04;;;;;;;6.13;5.23;;;;;;;;;;5071614;28;20433;-53
2022/07/28 14:32:31;;;;;;;5.40;5.00;;;;;;;;;;5032463;28;20459;-53
2022/07/28 14:34:57;;;;;;;5.57;4.87;;;;;;;;;;5063203;28;20709;-53
2022/07/28 14:37:23;;;;;;;5.07;4.57;;;;;;;;;;5046028;28;20944;-52
2022/07/28 14:39:51;;;;;;;5.60;4.47;;;;;;;;;;5074177;28;20503;-53
2022/07/28 14:42:37;;;;;;;4.90;4.40;;;;;;;;;;5045549;28;20439;-54
2022/07/28 14:45:05;;;;;;;5.83;5.30;;;;;;;;;;5060318;28;20973;-52
2022/07/28 14:47:32;;;;;;;5.30;4.80;;;;;;;;;;5079387;28;20451;-51
2022/07/28 14:49:58;;;;;;;4.80;4.00;;;;;;;;;;5064278;28;20938;-51
2022/07/28 14:52:24;;;;;;;5.40;4.90;;;;;;;;;;5077541;28;20526;-51
2022/07/28 14:54:50;;;;;;;5.03;4.53;;;;;;;;;;5051092;28;20852;-51
2022/07/28 14:57:16;;;;;;;5.20;4.80;;;;;;;;;;5068462;28;20464;-50
2022/07/28 14:59:42;;;;;;;4.53;4.13;;;;;;;;;;5044280;28;21612;-52
2022/07/28 15:02:08;;;;;;;7.50;4.70;;;;;;;;;;5050755;28;20472;-53
2022/07/28 15:04:34;;;;;;;7.03;4.63;;;;;;;;;;5050273;28;20441;-50
2022/07/28 15:07:01;;;;;;;5.20;4.70;;;;;;;;;;5068548;28;20986;-52
2022/07/28 15:09:29;;;;;;;4.93;4.47;;;;;;;;;;5051193;28;20997;-52
2022/07/28 15:11:58;;;;;;;5.60;4.20;;;;;;;;;;5050166;28;20452;-52
2022/07/28 15:14:24;;;;;;;5.10;4.70;;;;;;;;;;5021869;28;24040;-51
2022/07/28 15:16:50;;;;;;;5.03;4.13;;;;;;;;;;5076468;28;20432;-51